Time;durP1;ratioP1;P1;durP2;ratioP2;P2;SDS_P1;SDS_P2;PMS_P1;PMS_P2;Temp;Humidity;BMP_temperature;BMP_pressure;BME280_temperature;BME280_humidity;BME280_pressure;Samples;Min_cycle;Max_cycle;Signal;HPM_P1;HPM_P2
2022/06/29 00:01:16;;;;;;;1.95;1.77;;;;;;;17.19;100.00;97805.91;5025896;28;20065;-77
2022/06/29 00:03:41;;;;;;;2.53;1.50;;;;;;;17.20;100.00;97804.03;5006492;28;20114;-78
2022/06/29 00:06:07;;;;;;;1.08;0.93;;;;;;;17.23;100.00;97801.06;5008299;28;20116;-78
2022/06/29 00:08:32;;;;;;;1.02;0.85;;;;;;;17.18;100.00;97801.47;4993342;28;20094;-78
2022/06/29 00:10:58;;;;;;;7.13;1.50;;;;;;;17.27;100.00;97802.53;4981572;28;20112;-78
2022/06/29 00:13:23;;;;;;;5.20;1.65;;;;;;;17.23;100.00;97810.06;4989762;28;20089;-76
2022/06/29 00:15:49;;;;;;;1.42;1.27;;;;;;;17.32;100.00;97811.97;5022549;28;20030;-77
2022/06/29 00:18:15;;;;;;;3.55;2.10;;;;;;;17.33;100.00;97813.69;5010640;28;20512;-77
2022/06/29 00:20:40;;;;;;;1.55;0.90;;;;;;;17.34;100.00;97809.16;4990328;28;20509;-78
2022/06/29 00:23:06;;;;;;;1.10;0.95;;;;;;;17.37;100.00;97805.31;5008270;28;20034;-79
2022/06/29 00:25:31;;;;;;;2.08;0.80;;;;;;;17.35;100.00;97800.03;5009843;28;20032;-78
2022/06/29 00:27:57;;;;;;;0.77;0.77;;;;;;;17.40;100.00;97803.22;5009372;28;20128;-78
2022/06/29 00:30:23;;;;;;;1.55;1.45;;;;;;;17.29;100.00;97801.41;5009279;28;20041;-78
2022/06/29 00:32:48;;;;;;;2.13;0.77;;;;;;;17.46;100.00;97796.41;5009436;28;20050;-78
2022/06/29 00:35:14;;;;;;;1.38;0.73;;;;;;;17.41;100.00;97793.25;5009071;28;20544;-77
2022/06/29 00:37:39;;;;;;;1.42;1.15;;;;;;;17.34;100.00;97792.94;4991653;28;20035;-78
2022/06/29 00:40:06;;;;;;;8.82;2.15;;;;;;;17.37;100.00;97787.25;5007414;28;20034;-78
2022/06/29 00:42:31;;;;;;;2.15;1.20;;;;;;;17.39;100.00;97789.81;5025837;28;20030;-77
2022/06/29 00:44:57;;;;;;;0.75;0.68;;;;;;;17.33;100.00;97783.94;5010655;28;20026;-77
2022/06/29 00:47:23;;;;;;;11.10;2.15;;;;;;;17.33;100.00;97783.09;5012725;28;20409;-77
2022/06/29 00:49:48;;;;;;;2.45;1.35;;;;;;;17.23;100.00;97788.41;5012802;28;20475;-78
2022/06/29 00:52:15;;;;;;;3.75;1.65;;;;;;;17.25;100.00;97777.50;4997358;28;20026;-78
2022/06/29 00:54:44;;;;;;;0.95;0.75;;;;;;;17.31;100.00;97775.13;5012714;28;20486;-78
2022/06/29 00:57:19;;;;;;;0.90;0.85;;;;;;;17.34;100.00;97774.00;5012591;28;20535;-78
2022/06/29 00:59:52;;;;;;;1.33;1.17;;;;;;;17.31;100.00;97767.00;4996457;28;20117;-78
2022/06/29 01:02:20;;;;;;;2.38;1.75;;;;;;;17.29;100.00;97768.09;5011743;28;20049;-78
2022/06/29 01:04:47;;;;;;;1.65;1.55;;;;;;;17.13;100.00;97771.28;5012597;28;20032;-78
2022/06/29 01:07:15;;;;;;;5.65;2.08;;;;;;;17.22;100.00;97769.63;5028938;28;20116;-78
2022/06/29 01:09:41;;;;;;;5.70;1.88;;;;;;;17.25;100.00;97761.28;5029024;28;20096;-78
2022/06/29 01:12:07;;;;;;;1.95;1.48;;;;;;;17.23;100.00;97760.53;5000136;28;20033;-78
2022/06/29 01:14:33;;;;;;;2.42;1.67;;;;;;;17.29;100.00;97757.28;4979853;28;20092;-78
2022/06/29 01:16:58;;;;;;;5.78;3.13;;;;;;;17.19;100.00;97741.03;4997147;28;20524;-79
2022/06/29 01:19:24;;;;;;;0.80;0.80;;;;;;;17.27;100.00;97753.88;5006397;28;20520;-79
2022/06/29 01:21:51;;;;;;;1.20;1.10;;;;;;;17.26;100.00;97753.00;5028790;28;20030;-77
2022/06/29 01:24:19;;;;;;;1.33;1.00;;;;;;;17.23;100.00;97747.88;5028874;28;20029;-78
2022/06/29 01:26:44;;;;;;;2.53;0.80;;;;;;;17.21;100.00;97749.84;5028387;28;20042;-78
2022/06/29 01:29:10;;;;;;;1.10;1.10;;;;;;;17.12;100.00;97749.78;5011971;28;20030;-78
2022/06/29 01:31:35;;;;;;;3.08;1.98;;;;;;;17.13;100.00;97749.66;5028266;28;20073;-78
2022/06/29 01:34:01;;;;;;;2.17;1.50;;;;;;;17.22;100.00;97764.22;5000394;28;20087;-77
2022/06/29 01:36:27;;;;;;;2.15;1.02;;;;;;;17.20;100.00;97758.06;5039627;28;20424;-78
2022/06/29 01:38:53;;;;;;;1.40;1.05;;;;;;;17.19;100.00;97740.16;5028366;28;20026;-78
2022/06/29 01:41:18;;;;;;;2.30;1.00;;;;;;;17.18;100.00;97749.25;5028217;28;20462;-78
2022/06/29 01:43:44;;;;;;;4.28;1.55;;;;;;;17.13;100.00;97743.38;5046869;28;20407;-78
2022/06/29 01:46:10;;;;;;;0.45;0.45;;;;;;;17.06;100.00;97753.88;5031889;28;20033;-79
2022/06/29 01:48:35;;;;;;;2.08;0.85;;;;;;;16.98;100.00;97752.81;5014952;28;20040;-78
2022/06/29 01:51:01;;;;;;;1.33;0.63;;;;;;;16.96;100.00;97747.50;5013160;28;20030;-78
2022/06/29 01:53:26;;;;;;;1.60;1.13;;;;;;;16.85;100.00;97730.50;5028160;28;20030;-78
2022/06/29 01:55:52;;;;;;;0.95;0.65;;;;;;;16.90;100.00;97737.22;5038079;28;20041;-78
2022/06/29 01:58:17;;;;;;;0.80;0.80;;;;;;;16.90;100.00;97736.34;5039887;28;20029;-78
2022/06/29 02:00:44;;;;;;;0.57;0.57;;;;;;;16.92;100.00;97742.50;5047528;28;20147;-78
2022/06/29 02:03:10;;;;;;;2.45;1.73;;;;;;;16.91;100.00;97727.28;5045261;28;20148;-78
2022/06/29 02:05:36;;;;;;;0.93;0.60;;;;;;;16.92;100.00;97742.50;5036524;28;20033;-78
2022/06/29 02:08:02;;;;;;;1.38;0.80;;;;;;;16.83;100.00;97737.88;5011497;28;20049;-78
2022/06/29 02:10:27;;;;;;;0.80;0.73;;;;;;;16.73;100.00;97743.19;5030760;28;20029;-77
2022/06/29 02:12:53;;;;;;;2.03;1.60;;;;;;;16.65;100.00;97741.13;5013816;28;20357;-77
2022/06/29 02:15:19;;;;;;;3.20;2.13;;;;;;;16.59;100.00;97747.03;5047933;28;20037;-77
2022/06/29 02:17:44;;;;;;;4.60;1.42;;;;;;;16.40;100.00;97743.22;5029646;28;20045;-78
2022/06/29 02:20:11;;;;;;;1.10;0.88;;;;;;;16.51;100.00;97749.50;5040570;28;20447;-76
2022/06/29 02:22:37;;;;;;;0.85;0.65;;;;;;;16.46;100.00;97740.03;5011290;28;20115;-78
2022/06/29 02:25:03;;;;;;;6.32;2.30;;;;;;;16.52;100.00;97734.16;5035707;28;20076;-77
2022/06/29 02:27:29;;;;;;;1.20;1.10;;;;;;;16.50;100.00;97733.41;5014473;28;20033;-79
2022/06/29 02:29:54;;;;;;;2.63;1.30;;;;;;;16.43;100.00;97735.75;5028624;28;20420;-76
2022/06/29 02:35:04;;;;;;;1.30;1.13;;;;;;;16.37;100.00;97730.84;5013788;28;20041;-76
2022/06/29 02:37:30;;;;;;;1.23;1.13;;;;;;;16.43;100.00;97722.25;5033287;28;20038;-75
2022/06/29 02:39:55;;;;;;;1.30;0.98;;;;;;;16.53;100.00;97723.19;5029173;28;20045;-76
2022/06/29 02:42:21;;;;;;;4.18;0.95;;;;;;;16.59;100.00;97722.72;5047107;28;20029;-77
2022/06/29 02:44:46;;;;;;;0.68;0.57;;;;;;;16.60;100.00;97726.28;5047031;28;20029;-76
2022/06/29 02:47:13;;;;;;;1.40;1.23;;;;;;;16.54;100.00;97719.56;5047338;28;20029;-77
2022/06/29 02:49:38;;;;;;;1.30;0.80;;;;;;;16.37;100.00;97717.34;5046964;28;20484;-77
2022/06/29 02:52:04;;;;;;;5.80;2.22;;;;;;;16.47;100.00;97723.72;5010903;28;20030;-78
2022/06/29 02:54:30;;;;;;;2.53;1.00;;;;;;;16.51;100.00;97714.38;5013871;28;20029;-78
2022/06/29 02:56:55;;;;;;;2.15;1.95;;;;;;;16.55;100.00;97712.31;5027029;28;20036;-78
2022/06/29 02:59:22;;;;;;;5.68;1.95;;;;;;;16.55;100.00;97723.94;5038468;28;20040;-78
2022/06/29 03:01:48;;;;;;;8.90;1.55;;;;;;;16.55;100.00;97699.66;5011131;28;20475;-78
2022/06/29 03:04:13;;;;;;;1.30;0.57;;;;;;;16.62;100.00;97711.66;5044458;28;20037;-78
2022/06/29 03:06:39;;;;;;;2.10;1.08;;;;;;;16.72;100.00;97707.22;5008383;28;20033;-80
2022/06/29 03:09:05;;;;;;;2.10;0.93;;;;;;;16.58;100.00;97706.66;5043878;28;20071;-79
2022/06/29 03:11:31;;;;;;;2.58;1.60;;;;;;;16.60;100.00;97705.53;5007778;28;20032;-79
2022/06/29 03:13:57;;;;;;;6.40;2.08;;;;;;;16.67;100.00;97701.31;5018324;28;20559;-78
2022/06/29 03:16:23;;;;;;;0.73;0.65;;;;;;;16.68;100.00;97704.88;5032940;28;20029;-78
2022/06/29 03:19:07;;;;;;;4.05;1.63;;;;;;;16.30;100.00;97702.66;5040148;28;20029;-78
2022/06/29 03:21:32;;;;;;;5.90;1.60;;;;;;;16.20;100.00;97701.69;5013514;28;20481;-79
2022/06/29 03:23:58;;;;;;;2.28;1.52;;;;;;;16.44;100.00;97715.88;5009531;28;20088;-79
2022/06/29 03:26:23;;;;;;;1.85;1.45;;;;;;;16.50;100.00;97714.50;5038456;28;20094;-79
2022/06/29 03:28:52;;;;;;;2.80;1.35;;;;;;;16.63;100.00;97710.69;5009967;28;20028;-79
2022/06/29 03:31:19;;;;;;;6.22;1.23;;;;;;;16.68;100.00;97705.75;5007460;28;20058;-80
2022/06/29 03:33:45;;;;;;;9.55;2.35;;;;;;;16.77;100.00;97701.41;5011111;28;20095;-79
2022/06/29 03:36:11;;;;;;;1.58;1.27;;;;;;;16.79;100.00;97696.75;5007207;28;20030;-79
2022/06/29 03:38:37;;;;;;;4.50;2.55;;;;;;;16.51;100.00;97690.06;5037686;28;20479;-79
2022/06/29 03:41:03;;;;;;;1.45;0.93;;;;;;;16.37;100.00;97687.66;5041378;28;20045;-79
2022/06/29 03:43:28;;;;;;;2.05;1.85;;;;;;;16.55;100.00;97696.94;5024043;28;20467;-80
2022/06/29 03:45:54;;;;;;;1.65;1.10;;;;;;;16.76;100.00;97697.00;4994797;28;20499;-80
2022/06/29 03:48:19;;;;;;;5.18;1.35;;;;;;;16.87;100.00;97694.25;5026508;28;20040;-80
2022/06/29 03:50:45;;;;;;;0.93;0.88;;;;;;;16.90;100.00;97690.41;5027505;28;20036;-80
2022/06/29 03:53:10;;;;;;;2.80;1.33;;;;;;;16.94;100.00;97686.47;5042386;28;20103;-79
2022/06/29 03:55:36;;;;;;;3.10;2.13;;;;;;;17.04;100.00;97693.66;5010149;28;20038;-81
2022/06/29 03:58:02;;;;;;;2.70;1.73;;;;;;;17.01;100.00;97682.28;5035273;28;20121;-79
2022/06/29 04:00:27;;;;;;;1.45;1.15;;;;;;;17.09;100.00;97687.88;5011208;28;20084;-80
2022/06/29 04:02:53;;;;;;;4.80;1.65;;;;;;;17.14;100.00;97681.06;5039973;28;20057;-80
2022/06/29 04:05:18;;;;;;;4.03;1.48;;;;;;;17.23;100.00;97677.56;5041692;28;20025;-80
2022/06/29 04:07:44;;;;;;;4.18;1.45;;;;;;;17.36;100.00;97655.72;5035435;28;20500;-82
2022/06/29 04:10:10;;;;;;;0.93;0.85;;;;;;;17.41;100.00;97658.88;5037053;28;20124;-80
2022/06/29 04:12:36;;;;;;;2.70;1.05;;;;;;;17.52;100.00;97660.66;5033838;28;20365;-79
2022/06/29 04:15:04;;;;;;;3.28;1.02;;;;;;;17.47;100.00;97652.97;5030891;28;20404;-80
2022/06/29 04:17:30;;;;;;;4.47;1.88;;;;;;;17.53;100.00;97660.53;5023668;28;20053;-81
2022/06/29 04:19:55;;;;;;;2.10;1.00;;;;;;;17.50;100.00;97657.22;5025540;28;20068;-80
2022/06/29 04:22:22;;;;;;;2.53;0.90;;;;;;;17.62;100.00;97672.41;5011143;28;20799;-80
2022/06/29 04:24:48;;;;;;;0.88;0.82;;;;;;;17.64;100.00;97663.16;5024820;28;20037;-81
2022/06/29 04:27:14;;;;;;;5.47;1.08;;;;;;;17.72;100.00;97657.91;5014093;28;20051;-81
2022/06/29 04:29:40;;;;;;;1.50;0.95;;;;;;;17.36;100.00;97663.84;5040246;28;20036;-80
2022/06/29 04:32:06;;;;;;;1.70;1.08;;;;;;;17.25;100.00;97653.13;5010848;28;20056;-79
2022/06/29 04:34:31;;;;;;;0.90;0.90;;;;;;;17.37;100.00;97662.84;5035539;28;20044;-78
2022/06/29 04:36:58;;;;;;;1.13;1.05;;;;;;;17.02;100.00;97662.34;5036606;28;20045;-79
2022/06/29 04:39:24;;;;;;;1.83;0.63;;;;;;;17.19;100.00;97670.72;5046957;28;20103;-80
2022/06/29 04:41:52;;;;;;;5.03;2.35;;;;;;;17.38;100.00;97677.25;4997546;28;20033;-80
2022/06/29 04:44:18;;;;;;;3.83;1.38;;;;;;;17.50;100.00;97673.47;5040837;28;20503;-80
2022/06/29 04:46:44;;;;;;;1.30;1.13;;;;;;;17.37;100.00;97657.44;5016464;28;20034;-79
2022/06/29 04:49:09;;;;;;;1.52;1.02;;;;;;;17.50;100.00;97655.38;5032547;28;20045;-79
2022/06/29 04:51:35;;;;;;;0.90;0.50;;;;;;;17.74;100.00;97655.94;5013588;28;20037;-80
2022/06/29 04:54:02;;;;;;;1.50;0.98;;;;;;;17.92;100.00;97668.81;5041298;28;20029;-80
2022/06/29 04:56:29;;;;;;;15.25;2.15;;;;;;;18.03;100.00;97655.16;5034559;28;20128;-80
2022/06/29 04:58:57;;;;;;;1.25;1.15;;;;;;;17.93;100.00;97657.00;5010947;28;20480;-78
2022/06/29 05:01:24;;;;;;;1.27;1.15;;;;;;;18.14;100.00;97657.78;5013430;28;20120;-80
2022/06/29 05:03:53;;;;;;;2.45;1.88;;;;;;;18.30;100.00;97666.22;5046087;28;20037;-79
2022/06/29 05:06:20;;;;;;;5.72;1.75;;;;;;;18.08;100.00;97670.03;5039852;28;20110;-79
2022/06/29 05:08:47;;;;;;;3.95;0.75;;;;;;;18.30;100.00;97664.34;5012493;28;20060;-79
2022/06/29 05:11:14;;;;;;;2.13;1.48;;;;;;;18.37;100.00;97667.34;5029039;28;20481;-78
2022/06/29 05:13:41;;;;;;;1.85;1.35;;;;;;;18.22;100.00;97668.75;5026107;28;20121;-77
2022/06/29 05:16:06;;;;;;;2.10;1.15;;;;;;;18.43;100.00;97674.91;5013066;28;20415;-77
2022/06/29 05:18:33;;;;;;;1.45;0.93;;;;;;;18.52;100.00;97667.84;5045997;28;20029;-78
2022/06/29 05:21:04;;;;;;;2.17;1.38;;;;;;;18.71;100.00;97667.84;5026102;28;20037;-78
2022/06/29 05:23:31;;;;;;;1.95;1.17;;;;;;;19.09;100.00;97654.28;5010761;28;20029;-80
2022/06/29 05:25:58;;;;;;;1.23;1.13;;;;;;;18.84;100.00;97658.44;5045078;28;20381;-77
2022/06/29 05:28:23;;;;;;;0.63;0.63;;;;;;;18.92;100.00;97668.56;5010438;28;20121;-77
2022/06/29 05:30:50;;;;;;;0.55;0.55;;;;;;;18.28;100.00;97651.94;5008738;28;20504;-77
2022/06/29 05:33:16;;;;;;;2.47;1.58;;;;;;;18.67;100.00;97656.44;4980754;28;20037;-78
2022/06/29 05:35:42;;;;;;;0.93;0.80;;;;;;;18.24;100.00;97658.66;4995356;28;20029;-77
2022/06/29 05:38:07;;;;;;;0.80;0.77;;;;;;;18.57;100.00;97652.03;4994080;28;20381;-79
2022/06/29 05:40:33;;;;;;;2.33;1.15;;;;;;;18.83;100.00;97661.28;5025894;28;20109;-80
2022/06/29 05:42:59;;;;;;;1.00;1.00;;;;;;;19.06;100.00;97651.84;4992940;28;20519;-79
2022/06/29 05:45:25;;;;;;;3.30;0.95;;;;;;;19.16;100.00;97651.84;5025728;28;20496;-80
2022/06/29 05:47:52;;;;;;;3.75;1.23;;;;;;;19.33;100.00;97654.66;5025341;28;20138;-79
2022/06/29 05:50:18;;;;;;;6.95;0.98;;;;;;;19.48;100.00;97639.66;5009340;28;20033;-79
2022/06/29 05:52:44;;;;;;;1.60;1.02;;;;;;;19.48;100.00;97641.50;4995845;28;20630;-79
2022/06/29 05:55:09;;;;;;;2.55;1.38;;;;;;;18.82;100.00;97663.16;5008270;28;20045;-80
2022/06/29 05:57:35;;;;;;;1.85;1.50;;;;;;;18.82;100.00;97660.44;4994433;28;20038;-79
2022/06/29 06:00:04;;;;;;;3.08;1.45;;;;;;;19.07;100.00;97660.84;5008763;28;20455;-79
2022/06/29 06:02:29;;;;;;;0.93;0.90;;;;;;;19.74;100.00;97663.41;5003533;28;20030;-80
2022/06/29 06:04:55;;;;;;;1.17;0.93;;;;;;;19.89;100.00;97668.22;5001536;28;20052;-80
2022/06/29 06:07:21;;;;;;;0.80;0.80;;;;;;;19.22;100.00;97657.56;4994070;28;20045;-79
2022/06/29 06:09:47;;;;;;;3.90;1.48;;;;;;;19.25;100.00;97657.25;5000643;28;20040;-79
2022/06/29 06:12:12;;;;;;;0.32;0.32;;;;;;;19.43;100.00;97650.09;5024849;28;20191;-79
2022/06/29 06:14:38;;;;;;;6.78;1.65;;;;;;;19.21;100.00;97661.25;5000666;28;20033;-79
2022/06/29 06:17:04;;;;;;;5.55;1.92;;;;;;;19.15;100.00;97661.84;4993930;28;20026;-79
2022/06/29 06:19:29;;;;;;;1.20;0.55;;;;;;;18.83;100.00;97650.44;5011042;28;20157;-79
2022/06/29 06:21:55;;;;;;;1.33;0.85;;;;;;;18.93;100.00;97644.03;4993271;28;20033;-80
2022/06/29 06:24:21;;;;;;;3.30;1.65;;;;;;;19.20;100.00;97653.25;5027058;28;20040;-80
2022/06/29 06:26:47;;;;;;;2.22;1.25;;;;;;;19.06;100.00;97661.84;5009292;28;20069;-80
2022/06/29 06:29:12;;;;;;;1.15;1.08;;;;;;;19.50;100.00;97663.94;5008109;28;20028;-79
2022/06/29 06:31:38;;;;;;;1.25;1.00;;;;;;;19.64;100.00;97666.16;5003830;28;20117;-80
2022/06/29 06:34:03;;;;;;;4.68;1.45;;;;;;;19.93;100.00;97663.34;5024396;28;20061;-79
2022/06/29 06:36:29;;;;;;;2.47;1.50;;;;;;;21.21;100.00;97681.22;5024010;28;20113;-79
2022/06/29 06:38:55;;;;;;;3.58;1.13;;;;;;;23.52;94.91;97666.94;5008331;28;20087;-80
2022/06/29 06:41:23;;;;;;;1.00;1.00;;;;;;;25.22;82.09;97658.84;4991560;28;20407;-79
2022/06/29 06:43:50;;;;;;;1.45;0.90;;;;;;;25.91;75.81;97664.19;4991648;28;20042;-79
2022/06/29 06:46:15;;;;;;;0.55;0.55;;;;;;;24.55;77.73;97665.91;4991528;28;20030;-79
2022/06/29 06:48:42;;;;;;;0.60;0.55;;;;;;;25.96;74.40;97654.38;5007579;28;20133;-79
2022/06/29 06:51:08;;;;;;;0.63;0.60;;;;;;;26.69;70.14;97648.81;4991989;28;20505;-78
2022/06/29 06:53:33;;;;;;;1.10;0.80;;;;;;;27.18;65.24;97648.94;5008103;28;20186;-79
2022/06/29 06:55:59;;;;;;;1.13;0.75;;;;;;;26.23;69.10;97663.84;4991727;28;20481;-79
2022/06/29 06:58:25;;;;;;;0.82;0.60;;;;;;;26.31;71.04;97650.03;5007631;28;20473;-79
2022/06/29 07:00:50;;;;;;;1.38;1.27;;;;;;;28.47;63.67;97638.28;4994221;28;20041;-79
2022/06/29 07:03:16;;;;;;;1.33;1.08;;;;;;;28.55;62.41;97644.69;4992379;28;20457;-79
2022/06/29 07:05:41;;;;;;;1.25;0.80;;;;;;;27.97;62.50;97644.09;5009328;28;20050;-79
2022/06/29 07:08:07;;;;;;;2.25;1.27;;;;;;;27.17;65.72;97658.22;4993572;28;20041;-78
2022/06/29 07:10:33;;;;;;;0.73;0.68;;;;;;;27.54;64.11;97654.38;4993849;28;20069;-79
2022/06/29 07:13:01;;;;;;;2.10;0.65;;;;;;;28.48;61.73;97637.25;5010164;28;20382;-79
2022/06/29 07:15:27;;;;;;;2.72;1.38;;;;;;;28.36;62.56;97641.59;5010270;28;20034;-79
2022/06/29 07:17:55;;;;;;;1.23;0.98;;;;;;;28.60;61.74;97636.63;5010197;28;20397;-80
2022/06/29 07:20:39;;;;;;;0.88;0.75;;;;;;;30.05;57.60;97631.13;4993971;28;20037;-79
2022/06/29 07:23:07;;;;;;;2.17;1.08;;;;;;;32.59;50.70;97616.84;4998243;28;20029;-79
2022/06/29 07:25:42;;;;;;;0.88;0.73;;;;;;;32.98;48.41;97638.47;5010671;28;20030;-80
2022/06/29 07:28:11;;;;;;;0.65;0.43;;;;;;;32.10;49.03;97626.09;5010235;28;20093;-79
2022/06/29 07:30:40;;;;;;;0.35;0.35;;;;;;;31.02;51.52;97636.53;5009889;28;20394;-79
2022/06/29 07:33:08;;;;;;;1.05;0.68;;;;;;;30.11;52.96;97640.47;4973984;28;20124;-79
2022/06/29 07:35:34;;;;;;;0.80;0.47;;;;;;;30.54;53.06;97644.41;4974074;28;20030;-79
2022/06/29 07:38:00;;;;;;;1.33;1.00;;;;;;;29.53;55.69;97650.47;4957972;28;20133;-79
2022/06/29 07:40:26;;;;;;;0.35;0.35;;;;;;;30.70;53.05;97636.69;4973837;28;20117;-80
2022/06/29 07:42:51;;;;;;;16.15;8.18;;;;;;;30.54;51.95;97627.81;4974069;28;20068;-80
2022/06/29 07:45:17;;;;;;;16.02;8.18;;;;;;;31.29;51.11;97628.88;4990275;28;20019;-79
2022/06/29 07:47:43;;;;;;;9.93;8.38;;;;;;;29.70;54.34;97643.44;4989915;28;20068;-79
2022/06/29 07:50:12;;;;;;;15.00;7.55;;;;;;;32.21;50.73;97640.03;4989919;28;20084;-80
2022/06/29 07:52:39;;;;;;;11.32;6.78;;;;;;;33.77;45.96;97615.97;4974314;28;20109;-80
2022/06/29 07:55:05;;;;;;;9.35;7.68;;;;;;;32.48;48.48;97623.97;4977423;28;20089;-79
2022/06/29 07:57:30;;;;;;;12.45;7.38;;;;;;;32.42;48.44;97615.75;4994099;28;20108;-78
2022/06/29 07:59:56;;;;;;;10.55;7.25;;;;;;;30.88;51.64;97631.28;4993879;28;20548;-79
2022/06/29 08:02:21;;;;;;;8.35;6.25;;;;;;;32.86;49.14;97625.63;4993473;28;20026;-79
2022/06/29 08:04:50;;;;;;;15.23;6.57;;;;;;;34.34;46.13;97616.19;4994146;28;20030;-79
2022/06/29 08:07:15;;;;;;;7.28;6.00;;;;;;;35.95;42.41;97609.31;4977286;28;20022;-79
2022/06/29 08:09:41;;;;;;;9.98;6.55;;;;;;;36.37;40.70;97599.38;4993884;28;20053;-79
2022/06/29 08:12:08;;;;;;;10.80;6.95;;;;;;;34.32;44.77;97615.59;4966749;28;20170;-79
2022/06/29 08:14:33;;;;;;;7.53;6.55;;;;;;;33.94;43.89;97606.88;4992992;28;20030;-80
2022/06/29 08:16:59;;;;;;;21.45;16.33;;;;;;;31.56;48.24;97619.34;4993454;28;20026;-79
2022/06/29 08:19:25;;;;;;;40.20;25.95;;;;;;;31.67;49.25;97626.06;4976875;28;20034;-79
2022/06/29 08:21:53;;;;;;;7.68;6.22;;;;;;;31.68;47.83;97606.50;4976972;28;20486;-80
2022/06/29 08:24:19;;;;;;;7.90;5.00;;;;;;;31.10;49.18;97616.06;4993474;28;20060;-81
2022/06/29 08:26:44;;;;;;;9.30;5.80;;;;;;;31.65;47.66;97612.47;4993332;28;20053;-79
2022/06/29 08:29:11;;;;;;;8.23;5.68;;;;;;;32.09;46.69;97610.56;4993303;28;20019;-80
2022/06/29 08:31:36;;;;;;;10.35;5.80;;;;;;;32.87;45.97;97599.63;4992782;28;20057;-80
2022/06/29 08:34:05;;;;;;;9.93;5.40;;;;;;;35.52;41.29;97601.63;4993536;28;20455;-81
2022/06/29 08:36:31;;;;;;;6.90;4.60;;;;;;;34.92;40.94;97587.44;4977336;28;20030;-80
2022/06/29 08:38:57;;;;;;;9.25;5.13;;;;;;;35.55;39.44;97599.19;4977173;28;20386;-81
2022/06/29 08:41:24;;;;;;;5.13;4.63;;;;;;;34.46;41.06;97600.34;4976840;28;20030;-80
2022/06/29 08:43:49;;;;;;;11.65;4.88;;;;;;;35.26;41.35;97605.88;4977240;28;20030;-80
2022/06/29 08:46:15;;;;;;;9.57;4.95;;;;;;;34.49;42.25;97599.84;4976722;28;20029;-80
2022/06/29 08:48:41;;;;;;;7.22;5.13;;;;;;;34.11;41.46;97605.97;4976810;28;20429;-79
2022/06/29 08:51:06;;;;;;;7.10;4.55;;;;;;;34.14;41.88;97599.06;4971679;28;20053;-80
2022/06/29 08:53:36;;;;;;;6.13;5.10;;;;;;;34.79;41.21;97575.47;4976527;28;20041;-80
2022/06/29 08:56:03;;;;;;;11.55;4.55;;;;;;;35.70;40.27;97593.91;4977034;28;20502;-81
2022/06/29 08:58:29;;;;;;;7.60;4.95;;;;;;;36.59;39.23;97594.72;4993224;28;20109;-81
2022/06/29 09:00:55;;;;;;;7.25;4.13;;;;;;;35.91;38.85;97586.72;4976993;28;20138;-81
2022/06/29 09:03:23;;;;;;;9.07;4.57;;;;;;;35.17;40.79;97597.09;4976761;28;20029;-80
2022/06/29 09:05:49;;;;;;;18.55;8.82;;;;;;;35.45;38.42;97587.03;4970194;28;20019;-80
2022/06/29 09:08:16;;;;;;;5.43;3.88;;;;;;;35.12;38.84;97582.28;4992693;28;20030;-80
2022/06/29 09:10:42;;;;;;;4.93;4.10;;;;;;;34.19;39.69;97585.28;4992328;28;20158;-82
2022/06/29 09:13:08;;;;;;;4.47;3.70;;;;;;;35.56;38.77;97589.75;4976682;28;20121;-81
2022/06/29 09:15:37;;;;;;;6.55;3.55;;;;;;;34.46;40.04;97589.22;4976394;28;20045;-80
2022/06/29 09:18:04;;;;;;;7.45;3.65;;;;;;;36.27;38.28;97596.50;4972915;28;20181;-80
2022/06/29 09:20:38;;;;;;;3.50;3.20;;;;;;;35.72;37.72;97594.47;4975268;28;20026;-81
2022/06/29 09:23:04;;;;;;;8.38;3.78;;;;;;;35.59;38.90;97594.84;4971280;28;20407;-81
2022/06/29 09:25:31;;;;;;;5.95;4.30;;;;;;;36.04;38.76;97599.44;4970848;28;20026;-81
2022/06/29 09:27:57;;;;;;;5.70;3.33;;;;;;;35.48;38.09;97583.72;4968103;28;20036;-81
2022/06/29 09:30:31;;;;;;;7.05;3.75;;;;;;;36.23;37.22;97590.56;4992380;28;20026;-81
2022/06/29 09:33:01;;;;;;;6.32;3.63;;;;;;;36.22;37.43;97582.47;5010575;28;20148;-80
2022/06/29 09:35:27;;;;;;;6.20;3.53;;;;;;;35.36;38.35;97594.94;5012105;28;20099;-81
2022/06/29 09:37:53;;;;;;;5.43;3.08;;;;;;;35.86;36.32;97579.13;4995264;28;20473;-80
2022/06/29 09:40:18;;;;;;;8.40;3.78;;;;;;;36.13;36.88;97575.66;4992153;28;20098;-80
2022/06/29 09:42:44;;;;;;;8.88;3.63;;;;;;;35.93;35.87;97578.13;5025145;28;20030;-81
2022/06/29 09:45:09;;;;;;;4.65;2.60;;;;;;;35.69;37.02;97569.94;5011629;28;20164;-80
2022/06/29 09:47:36;;;;;;;4.65;2.80;;;;;;;36.65;34.29;97562.16;5028051;28;20048;-80
2022/06/29 09:50:05;;;;;;;3.97;2.92;;;;;;;35.88;35.40;97559.38;5028014;28;20030;-80
2022/06/29 09:52:32;;;;;;;3.00;2.80;;;;;;;37.70;32.90;97565.22;4978490;28;20485;-80
2022/06/29 09:54:59;;;;;;;6.22;2.75;;;;;;;38.19;32.62;97559.44;5027447;28;20477;-81
2022/06/29 09:57:28;;;;;;;9.20;3.38;;;;;;;37.78;34.10;97564.72;4978757;28;20038;-80
2022/06/29 10:02:48;;;;;;;11.85;4.00;;;;;;;36.18;37.67;97570.97;5011610;28;20125;-80
2022/06/29 10:05:16;;;;;;;15.10;6.05;;;;;;;36.50;36.35;97562.78;4995008;28;20108;-80
2022/06/29 10:07:44;;;;;;;4.30;3.80;;;;;;;37.52;35.48;97556.41;5011010;28;20477;-79
2022/06/29 10:10:13;;;;;;;4.97;3.22;;;;;;;36.17;36.68;97568.47;4994585;28;20057;-80
2022/06/29 10:15:53;;;;;;;5.38;3.25;;;;;;;36.35;36.64;97565.38;5012088;28;20045;-80
2022/06/29 10:18:31;;;;;;;6.90;3.88;;;;;;;37.12;35.31;97562.44;5009987;28;20078;-79
2022/06/29 10:20:57;;;;;;;10.00;8.00;;;;;;;38.22;34.84;97542.97;4994323;28;20096;-80
2022/06/29 10:23:42;;;;;;;5.88;3.13;;;;;;;38.63;33.80;97555.22;4994742;28;20026;-81
2022/06/29 10:26:33;;;;;;;5.00;3.53;;;;;;;36.89;36.33;97555.16;4994317;28;20089;-82
2022/06/29 10:29:08;;;;;;;7.77;3.23;;;;;;;36.52;36.09;97548.59;5011967;28;20144;-82
2022/06/29 10:31:52;;;;;;;4.50;3.25;;;;;;;36.79;37.26;97557.88;4994487;28;20060;-82
2022/06/29 10:34:41;;;;;;;4.65;3.22;;;;;;;36.52;36.63;97555.00;4994286;28;20030;-82
2022/06/29 10:37:10;;;;;;;5.50;3.10;;;;;;;37.44;35.51;97549.31;5010827;28;20045;-82
2022/06/29 10:39:45;;;;;;;3.88;3.30;;;;;;;38.20;34.43;97534.00;4994025;28;20092;-82
2022/06/29 10:45:17;;;;;;;5.88;3.10;;;;;;;38.93;33.84;97535.75;5007698;28;20579;-83
2022/06/29 10:47:55;;;;;;;4.72;3.03;;;;;;;38.40;33.66;97525.75;5011769;28;20029;-81
2022/06/29 10:50:25;;;;;;;3.53;3.20;;;;;;;39.17;32.58;97529.63;4993995;28;20496;-81
2022/06/29 10:52:53;;;;;;;11.07;3.03;;;;;;;40.89;29.94;97513.34;5008281;28;20070;-82
2022/06/29 10:55:19;;;;;;;4.85;3.08;;;;;;;41.39;30.02;97517.84;5010127;28;20030;-82
2022/06/29 10:57:46;;;;;;;7.88;3.47;;;;;;;41.64;29.52;97501.63;4991739;28;20026;-82
2022/06/29 11:00:15;;;;;;;3.03;2.70;;;;;;;42.84;27.56;97500.56;4991032;28;20033;-80
2022/06/29 11:02:42;;;;;;;7.38;2.75;;;;;;;43.97;26.75;97499.31;5007642;28;20030;-82
2022/06/29 11:05:08;;;;;;;3.80;2.70;;;;;;;44.39;26.29;97494.59;5010217;28;20021;-81
2022/06/29 11:13:02;;;;;;;9.43;2.92;;;;;;;39.78;30.03;97489.31;4996803;28;20185;-81
2022/06/29 11:15:39;;;;;;;2.95;2.60;;;;;;;39.16;30.73;97495.22;4993537;28;20121;-83
2022/06/29 11:18:14;;;;;;;6.03;2.83;;;;;;;37.30;33.02;97483.88;5005005;28;20036;-84
2022/06/29 11:20:41;;;;;;;3.03;2.40;;;;;;;38.98;31.92;97496.56;5009831;28;20037;-82
2022/06/29 11:23:14;;;;;;;9.23;3.25;;;;;;;38.62;32.63;97489.19;4993915;28;20087;-81
2022/06/29 11:25:45;;;;;;;20.73;3.10;;;;;;;37.89;33.91;97482.66;4993455;28;20061;-81
2022/06/29 11:28:12;;;;;;;5.15;2.80;;;;;;;39.14;31.48;97482.59;4993705;28;20022;-79
2022/06/29 11:30:38;;;;;;;7.85;3.38;;;;;;;37.04;33.81;97476.41;5009563;28;20481;-79
2022/06/29 11:33:11;;;;;;;4.72;2.83;;;;;;;35.84;35.77;97483.81;4993155;28;20426;-81
2022/06/29 11:35:42;;;;;;;3.42;2.75;;;;;;;36.79;35.83;97493.72;4993777;28;20044;-80
2022/06/29 11:38:08;;;;;;;18.00;4.05;;;;;;;38.34;34.24;97484.00;4993470;28;20092;-80
2022/06/29 11:40:35;;;;;;;6.55;3.55;;;;;;;37.61;34.29;97485.84;4993214;28;20409;-80
2022/06/29 11:43:09;;;;;;;5.32;3.20;;;;;;;37.68;34.18;97478.06;4993355;28;20022;-80
2022/06/29 11:45:46;;;;;;;3.25;2.95;;;;;;;38.56;32.47;97467.91;4993094;28;20123;-79